ADDS METAR Data INFO
IDs: Format: Raw Decoded Include TAF

Data at: 0715 UTC 19 Oct 2017

KBKE 190653Z AUTO 20005KT 10SM CLR 06/M01 A2984 RMK AO2 SLP106 T00561011
KBKE 190553Z AUTO 14005KT 10SM CLR 09/M03 A2986 RMK AO2 SLP109 T00941028 10167 20050 58016
KBKE 190453Z AUTO 00000KT 10SM CLR 06/M02 A2988 RMK AO2 SLP121 T00611022
KBKE 190353Z AUTO 13006KT 10SM CLR 11/M02 A2989 RMK AO2 SLP124 T01061022
KBKE 190253Z AUTO 10011KT 10SM CLR 12/M02 A2991 RMK AO2 SLP130 T01221017 56010
KBKE 190153Z AUTO 10010KT 10SM CLR 14/M02 A2992 RMK AO2 SLP131 T01391017
KBKE 190053Z AUTO 10008KT 10SM CLR 16/M02 A2993 RMK AO2 SLP133 T01561017
KBKE 182353Z AUTO 09011KT 10SM CLR 17/M02 A2994 RMK AO2 SLP138 60000 T01671017 10206 20094 58014
KBKE 182253Z AUTO 09011KT 10SM CLR 18/M01 A2996 RMK AO2 SLP142 T01781011
KBKE 182153Z AUTO 11013KT 10SM CLR 19/M02 A2998 RMK AO2 RAE00 SLP144 P0000 T01941022
KBKE 182053Z AUTO 10017KT 10SM -RA CLR 20/M01 A2999 RMK AO2 RAB49 SLP145 P0000 60000 T02001006 58029
KBKE 181953Z AUTO 08013KT 10SM CLR 17/01 A3002 RMK AO2 SLP168 T01720006
KBKE 181853Z AUTO 24003KT 10SM CLR 11/03 A3006 RMK AO2 SLP186 T01110033
KBKE 181753Z AUTO 00000KT 10SM CLR 09/03 A3008 RMK AO2 SLP195 T00940033 10094 20028 58002
KBKE 181653Z AUTO 36003KT 10SM CLR 08/03 A3010 RMK AO2 SLP197 T00780028
KBKE 181553Z AUTO 00000KT 10SM CLR 07/03 A3011 RMK AO2 SLP203 T00670028
KBKE 181453Z AUTO 30004KT 10SM CLR 04/02 A3009 RMK AO2 SLP200 T00440017 51002
KBKE 181353Z AUTO 00000KT 10SM CLR 03/01 A3008 RMK AO2 SLP195 T00330006
KBKE 181253Z AUTO 13003KT 10SM CLR 03/00 A3009 RMK AO2 SLP192 T00280000
KBKE 181153Z AUTO 00000KT 10SM CLR 03/00 A3008 RMK AO2 SLP186 T00280000 10078 20000 56009
KBKE 181053Z AUTO 20005KT 10SM CLR 04/01 A3009 RMK AO2 SLP186 T00390006
KBKE 180953Z AUTO 35005KT 10SM CLR 05/02 A3010 RMK AO2 SLP187 T00500017
KBKE 180853Z AUTO 16009KT 10SM CLR 08/02 A3011 RMK AO2 SLP194 T00780022 58012
KBKE 180753Z AUTO 12006KT 10SM CLR 00/M03 A3015 RMK AO2 SLP215 T00001028 401891044
KBKE 180653Z AUTO 28004KT 10SM CLR 03/00 A3017 RMK AO2 SLP221 T00280000
KBKE 180553Z AUTO 17006KT 10SM CLR 04/01 A3015 RMK AO2 SLP217 T00390011 10172 20028 50013
KBKE 180453Z AUTO 22005KT 10SM CLR 07/02 A3016 RMK AO2 SLP219 T00720022
KBKE 180353Z AUTO 17005KT 10SM CLR 06/M02 A3013 RMK AO2 SLP217 T00561017
KBKE 180253Z AUTO 17004KT 10SM CLR 06/M02 A3011 RMK AO2 SLP213 T00561022 53017
KBKE 180232Z AUTO 00000KT 3SM HZ CLR 07/M01 A3010 RMK AO2 T00671011
KBKE 180223Z AUTO 26005KT 1 3/4SM HZ CLR 07/M01 A3010 RMK AO2 T00671011
KBKE 180207Z AUTO 11003KT 9SM CLR 07/M01 A3009 RMK AO2 T00671006
KBKE 180159Z AUTO 00000KT 2SM HZ CLR 10/00 A3008 RMK AO2 T01000000
KBKE 180153Z AUTO 25003KT 3/4SM HZ CLR 10/00 A3007 RMK AO2 SLP197 T01000000
KBKE 180144Z AUTO 1 3/4SM HZ CLR 09/M01 A3007 RMK AO2 T00891011
KBKE 180058Z AUTO VRB04KT 3SM HZ CLR 13/01 A3005 RMK AO2 T01280011
KBKE 180053Z AUTO 00000KT 1/2SM HZ CLR 13/01 A3004 RMK AO2 VIS M1/4V5 SLP184 T01330011
KBKE 180007Z AUTO 00000KT 3SM HZ CLR 16/00 A3005 RMK AO2 T01610000
KBKE 172353Z AUTO 00000KT 1 1/2SM HZ CLR 17/M01 A3006 RMK AO2 SLP182 T01721006 10189 20106 55000
KBKE 172351Z AUTO 00000KT 1 1/2SM HZ CLR 17/M01 A3005 RMK AO2
KBKE 172333Z AUTO 00000KT 2SM HZ CLR 17/M01 A3006 RMK AO2 T01721011
KBKE 172326Z AUTO 21003KT 1 3/4SM HZ CLR 18/M01 A3006 RMK AO2 T01781011
KBKE 172315Z AUTO 23005KT 2SM HZ CLR 18/M01 A3006 RMK AO2 VIS 1 3/4V3 T01781011
KBKE 172253Z AUTO 22004KT 4SM HZ CLR 18/M02 A3006 RMK AO2 SLP182 T01831017
KBKE 172153Z AUTO 00000KT 9SM CLR 18/M02 A3006 RMK AO2 SLP182 T01781017
KBKE 172053Z AUTO 16005KT 10SM CLR 14/M02 A3007 RMK AO2 PRESFR SLP191 T01441017 58022
KBKE 171953Z AUTO 26004KT 10SM CLR 14/M02 A3011 RMK AO2 SLP206 T01391017